Time;durP1;ratioP1;P1;durP2;ratioP2;P2;SDS_P1;SDS_P2;PMS_P1;PMS_P2;Temp;Humidity;BMP_temperature;BMP_pressure;BME280_temperature;BME280_humidity;BME280_pressure;Samples;Min_cycle;Max_cycle;Signal;HPM_P1;HPM_P2
2021/04/17 00:00:29;;;;;;;9.43;7.17;;;7.40;93.00;;;;;;5110324;28;20424;-67
2021/04/17 00:02:55;;;;;;;10.33;6.40;;;7.40;93.10;;;;;;5110248;28;20968;-67
2021/04/17 00:05:21;;;;;;;6.80;6.20;;;7.40;93.10;;;;;;5110294;28;20480;-67
2021/04/17 00:07:47;;;;;;;6.70;6.10;;;7.40;93.20;;;;;;5110081;28;20250;-67
2021/04/17 00:10:14;;;;;;;8.10;6.90;;;7.40;93.20;;;;;;5125912;28;20174;-67
2021/04/17 00:12:40;;;;;;;9.27;6.80;;;7.40;93.60;;;;;;5131358;27;20465;-66
2021/04/17 00:15:06;;;;;;;7.60;5.57;;;7.40;92.80;;;;;;5130725;28;20895;-67
2021/04/17 00:17:31;;;;;;;7.87;6.60;;;7.40;92.60;;;;;;5130534;27;20199;-67
2021/04/17 00:19:57;;;;;;;8.40;6.03;;;7.40;92.20;;;;;;5130581;28;20470;-67
2021/04/17 00:22:23;;;;;;;9.23;7.00;;;7.40;92.00;;;;;;5130618;28;20512;-67
2021/04/17 00:24:49;;;;;;;7.00;6.30;;;7.50;92.00;;;;;;5130546;27;20605;-66
2021/04/17 00:27:14;;;;;;;7.23;6.40;;;7.40;92.00;;;;;;5130105;28;20402;-67
2021/04/17 00:29:41;;;;;;;9.33;6.80;;;7.50;92.10;;;;;;5130416;27;20540;-66
2021/04/17 00:32:08;;;;;;;7.43;6.63;;;7.50;92.00;;;;;;5130318;27;20179;-67
2021/04/17 00:34:35;;;;;;;7.60;6.57;;;7.50;92.10;;;;;;5130457;27;20399;-66
2021/04/17 00:37:00;;;;;;;8.93;7.50;;;7.50;92.10;;;;;;5130100;28;20523;-67
2021/04/17 00:39:26;;;;;;;8.20;7.30;;;7.50;92.40;;;;;;5130112;28;20391;-67
2021/04/17 00:41:52;;;;;;;6.83;5.97;;;7.50;92.70;;;;;;5130648;28;20637;-67
2021/04/17 00:44:17;;;;;;;8.30;7.40;;;7.40;93.00;;;;;;5129207;28;20173;-66
2021/04/17 00:46:43;;;;;;;10.13;7.37;;;7.30;93.30;;;;;;5129998;28;20610;-67
2021/04/17 00:49:11;;;;;;;9.37;7.60;;;7.30;93.50;;;;;;5120627;28;20522;-66
2021/04/17 00:51:37;;;;;;;11.70;7.60;;;7.30;93.80;;;;;;5116342;28;20530;-66
2021/04/17 00:54:04;;;;;;;8.63;7.83;;;7.30;93.60;;;;;;5116175;28;20471;-67
2021/04/17 00:56:30;;;;;;;8.77;6.53;;;7.30;93.90;;;;;;5116678;28;20436;-67
2021/04/17 00:58:55;;;;;;;8.83;7.00;;;7.30;94.20;;;;;;5115943;28;20481;-67
2021/04/17 01:01:21;;;;;;;8.60;6.33;;;7.20;94.40;;;;;;5115483;28;20174;-66
2021/04/17 01:04:01;;;;;;;8.50;7.67;;;7.20;94.80;;;;;;5116027;28;20547;-66
2021/04/17 01:14:32;;;;;;;8.37;7.57;;;7.10;95.30;;;;;;5110798;27;20502;-68
2021/04/17 01:17:00;;;;;;;12.73;6.93;;;7.00;95.70;;;;;;5105756;28;20405;-68
2021/04/17 01:22:21;;;;;;;8.70;7.63;;;7.00;95.80;;;;;;5110806;27;20513;-67
2021/04/17 01:24:55;;;;;;;11.73;6.60;;;6.90;96.10;;;;;;5111406;28;20473;-67
2021/04/17 01:27:21;;;;;;;7.80;6.70;;;6.80;96.40;;;;;;5110764;28;20396;-67
2021/04/17 01:29:47;;;;;;;8.03;6.90;;;6.80;96.40;;;;;;5110648;28;20778;-67
2021/04/17 01:32:14;;;;;;;12.03;7.80;;;6.80;96.40;;;;;;5110646;28;20157;-67
2021/04/17 01:34:41;;;;;;;8.40;7.20;;;6.70;96.60;;;;;;5099703;28;20409;-67
2021/04/17 01:37:09;;;;;;;9.13;7.10;;;6.70;97.10;;;;;;5090200;28;20391;-67
2021/04/17 01:39:35;;;;;;;9.87;7.00;;;6.70;97.40;;;;;;5090846;28;20385;-67
2021/04/17 01:42:05;;;;;;;8.83;6.63;;;6.60;97.50;;;;;;5090013;28;20448;-67
2021/04/17 01:44:34;;;;;;;11.57;7.93;;;6.60;97.60;;;;;;5090011;28;20466;-67
2021/04/17 01:47:07;;;;;;;10.23;8.47;;;6.60;97.80;;;;;;5089943;28;20386;-67
2021/04/17 01:49:37;;;;;;;9.70;6.20;;;6.50;97.90;;;;;;5090230;28;20934;-67
2021/04/17 01:52:03;;;;;;;9.33;6.57;;;6.50;98.10;;;;;;5090569;28;20456;-68
2021/04/17 01:54:33;;;;;;;8.50;7.37;;;6.50;98.50;;;;;;5090499;28;20893;-67
2021/04/17 01:57:02;;;;;;;9.40;7.07;;;6.40;98.60;;;;;;5089849;28;20390;-67
2021/04/17 01:59:31;;;;;;;8.47;6.67;;;6.40;99.00;;;;;;5089660;28;20429;-67
2021/04/17 02:01:57;;;;;;;8.37;6.80;;;6.40;98.80;;;;;;5090115;28;20444;-67
2021/04/17 02:04:23;;;;;;;7.70;6.90;;;6.40;98.80;;;;;;5089752;28;20408;-67
2021/04/17 02:06:48;;;;;;;10.10;7.07;;;6.30;99.10;;;;;;5089536;28;20409;-67
2021/04/17 02:09:14;;;;;;;8.70;6.90;;;6.30;99.30;;;;;;5105752;28;20710;-67
2021/04/17 02:11:40;;;;;;;8.57;6.70;;;6.20;99.20;;;;;;5109822;28;20162;-67
2021/04/17 02:14:05;;;;;;;9.23;7.50;;;6.20;99.40;;;;;;5109876;28;20159;-67
2021/04/17 02:16:57;;;;;;;8.73;7.67;;;6.10;99.60;;;;;;5109868;28;20142;-67
2021/04/17 02:19:30;;;;;;;8.30;6.37;;;6.10;99.90;;;;;;5108867;28;20248;-67
2021/04/17 02:21:57;;;;;;;9.67;7.67;;;6.00;99.90;;;;;;5109560;28;20558;-67
2021/04/17 02:24:27;;;;;;;7.97;7.17;;;6.00;99.90;;;;;;5109699;28;20388;-67
2021/04/17 02:26:53;;;;;;;8.60;7.80;;;6.00;99.90;;;;;;5089173;28;20447;-67
2021/04/17 02:29:19;;;;;;;8.10;7.27;;;5.90;99.90;;;;;;5089150;28;20377;-67
2021/04/17 02:31:45;;;;;;;10.00;7.00;;;5.90;99.90;;;;;;5086360;28;20725;-67
2021/04/17 02:34:10;;;;;;;8.77;7.87;;;5.90;99.90;;;;;;5075531;28;20156;-67
2021/04/17 02:36:36;;;;;;;12.20;8.20;;;5.90;99.90;;;;;;5075541;28;20923;-68
2021/04/17 02:39:04;;;;;;;10.03;7.33;;;5.90;99.90;;;;;;5076316;28;20159;-67
2021/04/17 02:41:30;;;;;;;10.33;7.40;;;5.80;99.90;;;;;;5075899;28;20194;-67
2021/04/17 02:43:56;;;;;;;8.43;7.57;;;5.80;99.90;;;;;;5075410;28;20393;-67
2021/04/17 02:46:21;;;;;;;9.73;7.30;;;5.80;99.90;;;;;;5075361;28;20393;-67
2021/04/17 02:48:47;;;;;;;9.07;7.97;;;5.80;99.90;;;;;;5075405;28;20554;-67
2021/04/17 02:51:12;;;;;;;8.20;7.30;;;5.70;99.90;;;;;;5075395;28;20159;-67
2021/04/17 02:53:38;;;;;;;8.83;7.40;;;5.70;99.90;;;;;;5076001;28;20209;-67
2021/04/17 02:56:04;;;;;;;7.20;6.43;;;5.70;99.90;;;;;;5075212;28;20225;-67
2021/04/17 02:58:30;;;;;;;9.20;7.20;;;5.70;99.90;;;;;;5075756;28;20187;-67
2021/04/17 03:00:55;;;;;;;9.50;7.60;;;5.60;99.90;;;;;;5075594;28;20495;-67
2021/04/17 03:03:21;;;;;;;18.20;8.30;;;5.60;99.90;;;;;;5075131;28;20150;-67
2021/04/17 03:05:46;;;;;;;11.93;7.63;;;5.60;99.90;;;;;;5074978;28;20156;-67
2021/04/17 03:08:12;;;;;;;9.50;7.33;;;5.50;99.90;;;;;;5075692;28;20171;-67
2021/04/17 03:10:38;;;;;;;17.90;8.90;;;5.50;99.90;;;;;;5075072;28;20580;-67
2021/04/17 03:13:05;;;;;;;8.00;6.90;;;5.50;99.90;;;;;;5074869;28;20386;-67
2021/04/17 03:15:31;;;;;;;10.53;8.33;;;5.40;99.90;;;;;;5075750;28;20834;-67
2021/04/17 03:17:57;;;;;;;10.17;7.60;;;5.40;99.90;;;;;;5095045;28;20396;-67
2021/04/17 03:20:22;;;;;;;10.43;7.10;;;5.40;99.90;;;;;;5094885;28;20209;-67
2021/04/17 03:22:48;;;;;;;9.50;7.97;;;5.30;99.90;;;;;;5095746;28;20393;-68
2021/04/17 03:25:14;;;;;;;9.60;7.77;;;5.30;99.90;;;;;;5094687;28;20500;-67
2021/04/17 03:27:42;;;;;;;10.70;8.13;;;5.30;99.90;;;;;;5094867;28;20162;-67
2021/04/17 03:30:11;;;;;;;9.07;7.70;;;5.20;99.90;;;;;;5094871;28;20902;-67
2021/04/17 03:32:37;;;;;;;8.50;7.10;;;5.20;99.90;;;;;;5093744;28;20911;-67
2021/04/17 03:35:05;;;;;;;8.50;7.50;;;5.20;99.90;;;;;;5094819;28;20424;-67
2021/04/17 03:37:31;;;;;;;8.13;7.13;;;5.20;99.90;;;;;;5095662;28;20155;-67
2021/04/17 03:39:57;;;;;;;10.50;7.80;;;5.10;99.90;;;;;;5094446;28;20454;-67
2021/04/17 03:42:22;;;;;;;9.03;7.87;;;5.10;99.90;;;;;;5094762;28;20152;-67
2021/04/17 03:44:48;;;;;;;10.13;7.73;;;5.10;99.90;;;;;;5093440;28;20209;-67
2021/04/17 03:47:13;;;;;;;10.30;8.10;;;5.00;99.90;;;;;;5094459;28;20254;-67
2021/04/17 03:49:39;;;;;;;9.03;8.23;;;5.00;99.90;;;;;;5093838;28;20660;-67
2021/04/17 03:52:05;;;;;;;7.37;6.67;;;5.00;99.90;;;;;;5095358;28;20216;-67
2021/04/17 03:54:30;;;;;;;10.80;7.83;;;4.90;99.90;;;;;;5094371;28;20191;-67
2021/04/17 03:56:56;;;;;;;9.53;8.53;;;4.90;99.90;;;;;;5094258;28;20291;-67
2021/04/17 03:59:21;;;;;;;9.10;8.10;;;4.90;99.90;;;;;;5094112;28;20756;-67
2021/04/17 04:01:47;;;;;;;10.63;7.80;;;4.90;99.90;;;;;;5094103;28;20183;-67
2021/04/17 04:04:13;;;;;;;9.10;7.30;;;4.90;99.90;;;;;;5094255;28;20167;-67
2021/04/17 04:06:39;;;;;;;10.03;8.07;;;4.90;99.90;;;;;;5093115;28;20159;-67
2021/04/17 04:09:05;;;;;;;10.33;7.67;;;4.80;99.90;;;;;;5074031;28;20408;-67
2021/04/17 04:11:31;;;;;;;9.27;8.37;;;4.80;99.90;;;;;;5073867;28;20527;-67
2021/04/17 04:13:56;;;;;;;8.40;7.60;;;4.70;99.90;;;;;;5073715;28;20879;-67
2021/04/17 04:16:22;;;;;;;13.67;8.30;;;4.70;99.90;;;;;;5073603;28;20189;-67
2021/04/17 04:18:48;;;;;;;11.00;9.00;;;4.70;99.90;;;;;;5073792;28;20163;-67
2021/04/17 04:21:13;;;;;;;9.13;7.97;;;4.60;99.90;;;;;;5074934;28;20206;-67
2021/04/17 04:23:39;;;;;;;10.37;9.27;;;4.60;99.90;;;;;;5074387;28;20183;-67
2021/04/17 04:26:04;;;;;;;13.40;8.70;;;4.60;99.90;;;;;;5073554;28;20160;-67
2021/04/17 04:28:30;;;;;;;9.80;8.80;;;4.50;99.90;;;;;;5073434;28;20148;-67
2021/04/17 04:30:56;;;;;;;10.33;8.27;;;4.50;99.90;;;;;;5073449;28;20168;-67
2021/04/17 04:33:21;;;;;;;9.90;8.07;;;4.40;99.90;;;;;;5073471;28;20389;-67
2021/04/17 04:35:47;;;;;;;8.30;7.43;;;4.40;99.90;;;;;;5074859;28;20238;-67
2021/04/17 04:38:13;;;;;;;10.50;8.30;;;4.40;99.90;;;;;;5073504;28;20174;-67
2021/04/17 04:40:38;;;;;;;13.83;8.80;;;4.30;99.90;;;;;;5073716;28;20441;-67
2021/04/17 04:43:04;;;;;;;12.37;9.17;;;4.30;99.90;;;;;;5073538;28;20168;-67
2021/04/17 04:45:31;;;;;;;10.23;7.90;;;4.30;99.90;;;;;;5073268;28;20155;-67
2021/04/17 04:47:57;;;;;;;11.37;9.20;;;4.30;99.90;;;;;;5073181;28;20647;-67
2021/04/17 04:50:22;;;;;;;13.67;8.80;;;4.30;99.90;;;;;;5074662;28;20390;-67
2021/04/17 04:52:48;;;;;;;9.03;8.10;;;4.30;99.90;;;;;;5073229;28;20615;-67
2021/04/17 04:55:14;;;;;;;10.63;7.87;;;4.30;99.90;;;;;;5072968;28;20164;-67
2021/04/17 04:57:39;;;;;;;10.90;9.30;;;4.20;99.90;;;;;;5073705;28;20215;-67
2021/04/17 05:00:06;;;;;;;11.00;8.30;;;4.20;99.90;;;;;;5072929;28;20426;-67
2021/04/17 05:02:31;;;;;;;8.70;7.80;;;4.20;99.90;;;;;;5073270;28;20166;-67
2021/04/17 05:04:57;;;;;;;9.80;8.27;;;4.20;99.90;;;;;;5074472;28;20500;-67
2021/04/17 05:07:22;;;;;;;11.67;7.17;;;4.20;99.90;;;;;;5073117;28;20650;-67
2021/04/17 05:09:48;;;;;;;10.33;7.47;;;4.20;99.90;;;;;;5073043;28;20242;-67
2021/04/17 05:12:14;;;;;;;9.20;7.97;;;4.20;99.90;;;;;;5072959;28;20616;-67
2021/04/17 05:14:39;;;;;;;10.77;8.20;;;4.30;99.90;;;;;;5075098;28;20186;-67
2021/04/17 05:17:05;;;;;;;13.20;8.20;;;4.30;99.90;;;;;;5093561;28;20162;-67
2021/04/17 05:19:30;;;;;;;8.67;7.40;;;4.30;99.90;;;;;;5094761;28;20611;-67
2021/04/17 05:21:56;;;;;;;11.83;8.20;;;4.30;99.90;;;;;;5093097;28;20289;-67
2021/04/17 05:24:21;;;;;;;12.60;8.90;;;4.30;99.90;;;;;;5093023;28;20248;-67
2021/04/17 05:26:47;;;;;;;10.37;8.27;;;4.30;99.90;;;;;;5093057;28;20516;-67
2021/04/17 05:29:12;;;;;;;13.37;10.60;;;4.40;99.90;;;;;;5093225;28;20189;-67
2021/04/17 05:31:38;;;;;;;15.33;9.73;;;4.40;99.90;;;;;;5092648;28;20648;-67
2021/04/17 05:34:06;;;;;;;12.90;9.37;;;4.40;99.90;;;;;;5094539;28;20562;-67
2021/04/17 05:36:32;;;;;;;12.00;10.30;;;4.40;99.90;;;;;;5093095;28;20191;-67
2021/04/17 05:38:58;;;;;;;14.23;10.43;;;4.40;99.90;;;;;;5092962;28;20397;-67
2021/04/17 05:41:25;;;;;;;11.77;9.60;;;4.40;99.90;;;;;;5092910;28;20811;-67
2021/04/17 05:43:51;;;;;;;12.60;8.40;;;4.40;99.90;;;;;;5093076;28;20151;-67
2021/04/17 05:46:17;;;;;;;17.17;10.00;;;4.50;99.90;;;;;;5093644;28;20471;-67
2021/04/17 05:48:42;;;;;;;12.30;9.60;;;4.50;99.90;;;;;;5093163;28;20171;-67
2021/04/17 05:51:08;;;;;;;11.30;9.50;;;4.50;99.90;;;;;;5092802;28;20810;-67
2021/04/17 05:53:34;;;;;;;13.20;9.63;;;4.50;99.90;;;;;;5092737;28;20159;-67
2021/04/17 05:55:59;;;;;;;11.70;10.03;;;4.50;99.90;;;;;;5092766;28;20160;-67
2021/04/17 05:58:25;;;;;;;13.80;8.63;;;4.60;99.90;;;;;;5092822;28;20511;-67
2021/04/17 06:00:50;;;;;;;12.53;10.03;;;4.60;99.90;;;;;;5093734;28;20188;-67
2021/04/17 06:03:19;;;;;;;11.10;9.43;;;4.60;99.90;;;;;;5093987;28;20170;-67
2021/04/17 06:05:47;;;;;;;13.70;10.50;;;4.70;99.90;;;;;;5089287;28;20587;-67
2021/04/17 06:08:13;;;;;;;11.97;9.57;;;4.80;99.90;;;;;;5090549;28;20404;-67
2021/04/17 06:10:39;;;;;;;11.97;9.33;;;4.90;99.90;;;;;;5096530;28;20546;-67
2021/04/17 06:13:05;;;;;;;10.93;8.33;;;5.10;99.90;;;;;;5096455;28;20228;-67
2021/04/17 06:15:30;;;;;;;11.33;9.73;;;5.20;99.90;;;;;;5097281;28;20397;-67
2021/04/17 06:17:56;;;;;;;9.00;8.10;;;5.20;99.90;;;;;;5097621;28;20151;-67
2021/04/17 06:20:22;;;;;;;9.27;8.17;;;5.20;99.90;;;;;;5096295;28;20290;-67
2021/04/17 06:22:47;;;;;;;11.73;9.00;;;5.30;99.90;;;;;;5095377;28;20175;-67
2021/04/17 06:25:13;;;;;;;9.90;8.20;;;5.30;99.90;;;;;;5096187;28;20513;-67
2021/04/17 06:27:38;;;;;;;10.43;9.30;;;5.20;99.90;;;;;;5096161;28;20157;-67
2021/04/17 06:30:06;;;;;;;10.23;8.40;;;5.20;99.90;;;;;;5096839;28;20155;-67
2021/04/17 06:32:31;;;;;;;9.00;7.67;;;5.20;99.90;;;;;;5097494;28;20628;-67
2021/04/17 06:34:57;;;;;;;9.13;8.13;;;5.20;99.90;;;;;;5096043;28;20394;-67
2021/04/17 06:37:23;;;;;;;9.37;8.43;;;5.20;99.90;;;;;;5095911;28;20158;-67
2021/04/17 06:39:48;;;;;;;12.40;8.47;;;5.20;99.90;;;;;;5094969;28;20553;-67
2021/04/17 06:42:18;;;;;;;11.93;8.53;;;5.30;99.90;;;;;;5096168;28;20536;-67
2021/04/17 06:44:44;;;;;;;11.90;9.00;;;5.40;99.90;;;;;;5096776;28;20156;-67
2021/04/17 06:47:13;;;;;;;9.43;7.47;;;5.40;99.90;;;;;;5096808;28;20385;-67
2021/04/17 06:49:41;;;;;;;9.20;8.30;;;5.60;99.90;;;;;;5095773;28;20750;-67
2021/04/17 06:52:09;;;;;;;9.00;8.20;;;5.70;99.90;;;;;;5095955;28;20400;-67
2021/04/17 06:54:36;;;;;;;15.80;8.83;;;5.80;99.90;;;;;;5095854;28;20400;-67
2021/04/17 06:57:02;;;;;;;9.57;8.40;;;6.00;99.90;;;;;;5094693;28;20405;-67
2021/04/17 06:59:31;;;;;;;9.73;8.23;;;6.00;99.90;;;;;;5096160;28;20424;-67
2021/04/17 07:01:57;;;;;;;9.23;7.67;;;6.10;99.90;;;;;;5096097;28;20444;-67
2021/04/17 07:04:23;;;;;;;12.57;8.67;;;6.20;99.90;;;;;;5095633;28;20396;-67
2021/04/17 07:06:48;;;;;;;13.17;9.53;;;6.30;99.90;;;;;;5082985;28;20398;-67
2021/04/17 07:09:14;;;;;;;10.47;9.10;;;6.40;99.90;;;;;;5075178;28;20630;-67
2021/04/17 07:11:40;;;;;;;11.43;7.40;;;6.50;99.90;;;;;;5075222;28;20147;-67
2021/04/17 07:14:08;;;;;;;8.57;7.67;;;6.60;99.90;;;;;;5076488;28;20205;-67
2021/04/17 07:27:49;;;;;;;10.63;8.13;;;6.90;99.90;;;;;;5111840;27;20510;-68
2021/04/17 07:33:14;;;;;;;8.47;7.20;;;7.20;99.90;;;;;;5110944;27;20512;-67
2021/04/17 07:35:44;;;;;;;10.47;8.00;;;7.60;99.90;;;;;;5110144;28;20392;-66
2021/04/17 07:38:21;;;;;;;12.50;8.50;;;7.70;99.90;;;;;;5110918;28;20856;-67
2021/04/17 07:43:55;;;;;;;8.50;5.50;;;8.00;99.90;;;;;;5112186;27;20504;-68
2021/04/17 07:46:24;;;;;;;7.73;4.37;;;8.20;99.90;;;;;;5110245;28;20388;-68
2021/04/17 07:48:51;;;;;;;8.73;4.50;;;8.40;98.00;;;;;;5098187;28;20406;-68
2021/04/17 07:51:19;;;;;;;6.63;4.53;;;8.70;96.60;;;;;;5090688;28;20404;-68
2021/04/17 07:53:45;;;;;;;5.40;3.80;;;9.10;95.40;;;;;;5091026;28;20926;-68
2021/04/17 07:56:33;;;;;;;8.53;4.20;;;9.60;92.60;;;;;;5090657;28;20388;-68
2021/04/17 07:59:04;;;;;;;6.07;4.23;;;10.00;86.60;;;;;;5090811;28;20420;-68
2021/04/17 08:01:31;;;;;;;4.67;4.10;;;10.10;83.50;;;;;;5090099;28;20813;-68
2021/04/17 08:03:59;;;;;;;5.03;3.80;;;10.10;82.70;;;;;;5090313;28;20448;-68
2021/04/17 08:06:26;;;;;;;5.63;3.83;;;10.20;81.70;;;;;;5090731;28;20851;-68
2021/04/17 08:08:54;;;;;;;6.43;4.07;;;10.30;80.70;;;;;;5090406;28;20385;-68
2021/04/17 08:11:22;;;;;;;6.90;4.23;;;10.40;79.60;;;;;;5090602;28;20415;-68
2021/04/17 08:13:49;;;;;;;7.03;4.83;;;10.70;78.50;;;;;;5091139;28;20868;-68
2021/04/17 08:16:16;;;;;;;8.57;4.50;;;10.90;77.20;;;;;;5090078;28;20522;-68
2021/04/17 08:18:42;;;;;;;6.00;4.07;;;11.20;75.30;;;;;;5090030;28;20771;-68
2021/04/17 08:21:11;;;;;;;4.80;3.60;;;11.30;73.80;;;;;;5089735;28;20419;-68
2021/04/17 08:23:38;;;;;;;5.47;4.03;;;11.40;72.20;;;;;;5108818;28;20414;-68
2021/04/17 08:26:05;;;;;;;5.80;4.33;;;11.50;70.90;;;;;;5110765;28;20388;-68
2021/04/17 08:28:39;;;;;;;4.53;3.80;;;11.40;70.90;;;;;;5110769;28;20869;-68
2021/04/17 08:31:33;;;;;;;3.77;3.17;;;11.30;70.30;;;;;;5110102;28;20382;-68
2021/04/17 08:34:16;;;;;;;5.97;4.60;;;11.30;70.00;;;;;;5109017;28;20406;-68
2021/04/17 08:37:04;;;;;;;7.27;4.30;;;11.30;70.80;;;;;;5110016;28;20464;-68
2021/04/17 08:42:16;;;;;;;6.47;4.20;;;11.30;71.30;;;;;;5112260;27;20513;-67
2021/04/17 08:44:45;;;;;;;7.63;5.03;;;11.30;71.30;;;;;;5111065;28;20452;-68
2021/04/17 08:47:13;;;;;;;8.60;4.60;;;11.40;71.90;;;;;;5110938;28;20382;-68
2021/04/17 08:49:42;;;;;;;7.17;4.70;;;11.30;71.20;;;;;;5110873;28;20378;-68
2021/04/17 08:55:07;;;;;;;8.97;4.73;;;11.40;71.80;;;;;;5091054;28;20973;-68
2021/04/17 08:57:34;;;;;;;4.60;3.70;;;11.50;69.70;;;;;;5058092;28;20413;-68
2021/04/17 09:00:01;;;;;;;7.77;4.73;;;11.50;68.70;;;;;;5070254;28;20419;-68
2021/04/17 09:02:29;;;;;;;7.00;4.30;;;11.40;68.00;;;;;;5070320;28;20380;-68
2021/04/17 09:07:38;;;;;;;6.07;4.90;;;11.20;68.40;;;;;;5110845;27;20517;-68
2021/04/17 09:16:03;;;;;;;5.77;3.90;;;11.00;70.00;;;;;;5110975;27;20552;-68
2021/04/17 09:23:53;;;;;;;6.70;5.60;;;11.10;70.60;;;;;;5132021;27;20927;-67
2021/04/17 09:26:38;;;;;;;7.87;4.57;;;11.70;70.00;;;;;;5132029;28;20388;-67
2021/04/17 09:29:07;;;;;;;5.37;4.30;;;11.80;68.90;;;;;;5131359;28;20408;-67
2021/04/17 09:31:36;;;;;;;6.47;5.03;;;11.90;68.90;;;;;;5113005;28;20452;-67
2021/04/17 09:34:04;;;;;;;9.40;4.77;;;12.10;68.20;;;;;;5110850;28;20373;-67
2021/04/17 09:36:30;;;;;;;6.50;4.27;;;12.20;66.80;;;;;;5110647;28;20381;-67
2021/04/17 09:38:56;;;;;;;7.40;4.20;;;12.20;65.10;;;;;;5111550;28;20389;-68
2021/04/17 09:41:22;;;;;;;7.63;3.50;;;12.20;64.00;;;;;;5110971;28;20432;-67
2021/04/17 09:43:56;;;;;;;6.07;3.80;;;12.20;64.10;;;;;;5110496;28;20494;-67
2021/04/17 09:46:22;;;;;;;6.70;4.37;;;12.30;62.80;;;;;;5110936;28;20216;-67
2021/04/17 09:48:48;;;;;;;4.77;3.73;;;12.40;62.90;;;;;;5110757;28;20465;-67
2021/04/17 09:54:06;;;;;;;4.83;4.33;;;12.70;61.00;;;;;;5133098;27;20565;-68
2021/04/17 09:56:34;;;;;;;5.03;3.63;;;12.80;61.30;;;;;;5131485;28;20388;-68
2021/04/17 09:59:12;;;;;;;5.70;3.77;;;12.90;61.50;;;;;;5131224;28;20422;-66
2021/04/17 10:01:49;;;;;;;8.47;4.00;;;12.90;60.60;;;;;;5131413;27;20380;-68
2021/04/17 10:04:15;;;;;;;4.57;3.37;;;13.10;60.00;;;;;;5130584;27;20762;-68
2021/04/17 10:06:41;;;;;;;3.70;3.40;;;13.20;59.20;;;;;;5119900;28;20397;-68
2021/04/17 10:11:44;;;;;;;7.43;4.97;;;13.30;58.80;;;;;;5111058;27;20555;-68
2021/04/17 10:14:12;;;;;;;4.30;3.90;;;13.20;58.50;;;;;;5110946;28;20392;-68
2021/04/17 10:16:42;;;;;;;6.43;3.60;;;13.20;58.00;;;;;;5110880;28;20392;-68
2021/04/17 10:19:11;;;;;;;9.63;3.40;;;13.20;57.60;;;;;;5110887;28;20746;-68
2021/04/17 10:21:37;;;;;;;8.27;4.20;;;13.20;57.20;;;;;;5100919;28;20949;-68
2021/04/17 10:37:47;;;;;;;5.57;3.63;;;13.00;57.10;;;;;;5045898;28;20508;-68
2021/04/17 10:40:18;;;;;;;8.43;3.63;;;13.30;56.10;;;;;;5027021;28;20883;-68
2021/04/17 10:42:48;;;;;;;8.50;4.10;;;13.30;56.60;;;;;;5027113;28;20387;-68
2021/04/17 10:45:17;;;;;;;7.23;4.10;;;13.40;56.50;;;;;;5027218;28;20423;-68
2021/04/17 10:47:43;;;;;;;4.60;3.20;;;13.60;56.20;;;;;;5026716;28;20749;-68
2021/04/17 10:50:20;;;;;;;6.57;3.80;;;13.70;55.80;;;;;;5027313;28;20475;-68
2021/04/17 10:52:56;;;;;;;4.00;3.27;;;13.90;55.10;;;;;;5027761;28;20391;-68
2021/04/17 10:55:33;;;;;;;7.67;3.70;;;13.90;54.40;;;;;;5026596;28;20475;-68
2021/04/17 10:57:58;;;;;;;4.93;3.20;;;14.00;55.20;;;;;;5026836;28;20400;-68
2021/04/17 11:00:30;;;;;;;8.20;4.43;;;13.90;54.90;;;;;;5026466;27;21068;-68
2021/04/17 11:02:57;;;;;;;5.23;3.90;;;13.80;55.10;;;;;;5026673;28;20673;-68
2021/04/17 11:05:22;;;;;;;8.07;5.47;;;13.80;55.40;;;;;;5027286;28;20392;-68
2021/04/17 11:07:58;;;;;;;7.13;4.80;;;13.80;55.30;;;;;;5025876;28;20396;-68
2021/04/17 11:10:40;;;;;;;8.90;4.63;;;13.70;55.70;;;;;;5026821;28;20674;-68
2021/04/17 11:13:06;;;;;;;4.30;3.73;;;13.80;56.00;;;;;;5026380;28;20427;-68
2021/04/17 11:15:34;;;;;;;4.47;4.07;;;13.80;55.80;;;;;;5026466;28;20487;-68
2021/04/17 11:18:20;;;;;;;6.90;4.63;;;13.70;56.00;;;;;;5026368;28;20407;-68
2021/04/17 11:23:49;;;;;;;6.10;4.30;;;13.70;56.30;;;;;;5111065;27;20839;-68
2021/04/17 11:26:18;;;;;;;6.30;3.80;;;13.70;56.10;;;;;;5110987;28;20937;-68
2021/04/17 11:28:48;;;;;;;6.70;3.97;;;13.70;56.20;;;;;;5107638;28;20409;-68
2021/04/17 11:31:20;;;;;;;5.20;4.10;;;13.70;56.50;;;;;;5090612;28;20389;-68
2021/04/17 11:33:48;;;;;;;6.43;3.93;;;13.70;56.80;;;;;;5090895;28;20382;-68
2021/04/17 11:36:13;;;;;;;5.77;3.80;;;13.80;56.40;;;;;;5091467;28;20384;-68
2021/04/17 11:38:39;;;;;;;6.87;4.20;;;13.80;55.80;;;;;;5090472;28;20882;-68
2021/04/17 11:41:05;;;;;;;6.97;4.60;;;13.80;55.30;;;;;;5090213;28;20151;-68
2021/04/17 11:43:30;;;;;;;4.30;3.47;;;13.80;55.20;;;;;;5090309;28;20650;-68
2021/04/17 11:45:56;;;;;;;5.27;3.97;;;13.70;56.00;;;;;;5090961;28;20178;-68
2021/04/17 11:48:22;;;;;;;8.03;4.00;;;13.70;56.00;;;;;;5090864;28;20163;-68
2021/04/17 11:50:47;;;;;;;4.80;4.10;;;13.80;56.70;;;;;;5090772;28;20196;-68
2021/04/17 11:53:16;;;;;;;9.20;5.37;;;13.80;56.70;;;;;;5090152;28;20159;-68
2021/04/17 11:55:41;;;;;;;9.60;5.07;;;13.80;56.90;;;;;;5090015;28;20612;-68
2021/04/17 11:58:07;;;;;;;4.37;3.30;;;13.80;56.80;;;;;;5089824;28;20386;-68
2021/04/17 12:00:32;;;;;;;5.80;4.77;;;13.90;56.10;;;;;;5089874;28;20159;-68
2021/04/17 12:02:59;;;;;;;5.67;4.33;;;13.90;55.70;;;;;;5091132;28;20226;-68
2021/04/17 12:05:25;;;;;;;6.27;5.40;;;13.80;55.70;;;;;;5090388;28;20174;-68
2021/04/17 12:07:52;;;;;;;6.20;4.70;;;13.80;56.10;;;;;;5089866;28;20381;-68
2021/04/17 12:10:17;;;;;;;5.10;4.10;;;13.80;55.70;;;;;;5089795;28;20819;-68
2021/04/17 12:12:44;;;;;;;5.33;3.77;;;13.80;55.50;;;;;;5089643;28;20432;-68
2021/04/17 12:15:10;;;;;;;6.90;3.80;;;13.80;54.90;;;;;;5089852;28;20233;-68
2021/04/17 12:17:36;;;;;;;7.33;3.47;;;13.80;54.10;;;;;;5090347;28;20508;-68
2021/04/17 12:20:02;;;;;;;6.33;2.90;;;13.70;51.90;;;;;;5095330;28;20500;-68
2021/04/17 12:22:27;;;;;;;3.47;3.17;;;13.70;50.70;;;;;;5109773;28;20210;-68
2021/04/17 12:24:53;;;;;;;6.40;2.67;;;13.70;49.20;;;;;;5109801;28;20389;-68
2021/04/17 12:27:19;;;;;;;6.57;2.97;;;13.70;48.10;;;;;;5109708;28;20567;-68
2021/04/17 12:29:46;;;;;;;3.17;1.83;;;13.70;46.50;;;;;;5109494;28;20834;-68
2021/04/17 12:32:11;;;;;;;2.80;1.80;;;13.80;42.40;;;;;;5110781;28;20400;-68
2021/04/17 12:34:37;;;;;;;4.00;2.67;;;13.70;40.70;;;;;;5097904;28;20504;-68
2021/04/17 12:37:02;;;;;;;4.90;2.70;;;13.60;41.80;;;;;;5095395;28;20186;-68
2021/04/17 12:39:28;;;;;;;4.03;3.37;;;13.30;43.50;;;;;;5096006;28;20159;-68
2021/04/17 12:41:54;;;;;;;6.43;3.37;;;13.10;44.70;;;;;;5095742;28;20190;-68
2021/04/17 12:44:19;;;;;;;4.07;3.40;;;13.10;45.20;;;;;;5095664;28;20166;-68
2021/04/17 12:46:45;;;;;;;9.90;3.90;;;12.90;45.20;;;;;;5096950;28;20162;-68
2021/04/17 12:49:11;;;;;;;6.20;3.17;;;12.80;45.30;;;;;;5096508;28;20165;-68
2021/04/17 12:51:36;;;;;;;7.93;4.60;;;12.70;47.30;;;;;;5095682;28;20166;-68
2021/04/17 12:54:02;;;;;;;6.00;4.70;;;12.60;48.90;;;;;;5094805;28;20167;-68
2021/04/17 12:56:28;;;;;;;6.57;4.63;;;12.60;49.50;;;;;;5095563;28;20155;-68
2021/04/17 12:58:53;;;;;;;8.27;4.30;;;12.60;49.90;;;;;;5095432;28;20218;-68
2021/04/17 13:01:19;;;;;;;7.90;5.97;;;12.60;50.10;;;;;;5096717;28;20184;-68
2021/04/17 13:03:45;;;;;;;8.03;4.63;;;12.70;49.10;;;;;;5095660;28;20162;-68
2021/04/17 13:06:11;;;;;;;6.57;3.43;;;12.80;48.60;;;;;;5087988;28;20202;-68
2021/04/17 13:08:37;;;;;;;3.40;3.10;;;12.80;47.20;;;;;;5075135;28;20390;-68
2021/04/17 13:11:03;;;;;;;5.93;3.13;;;12.90;47.20;;;;;;5075640;28;20202;-68
2021/04/17 13:13:29;;;;;;;8.30;4.30;;;12.90;47.40;;;;;;5074943;28;20394;-68
2021/04/17 13:15:55;;;;;;;6.90;3.80;;;13.00;48.30;;;;;;5076092;28;20806;-68
2021/04/17 13:18:21;;;;;;;5.63;3.63;;;13.00;48.60;;;;;;5075407;28;20156;-68
2021/04/17 13:20:47;;;;;;;4.50;3.30;;;13.00;49.30;;;;;;5074915;28;20156;-68
2021/04/17 13:23:14;;;;;;;7.60;3.70;;;13.10;50.10;;;;;;5074710;28;20496;-68
2021/04/17 13:25:40;;;;;;;3.80;2.80;;;13.00;49.80;;;;;;5074863;28;20405;-68
2021/04/17 13:28:06;;;;;;;7.43;2.90;;;12.80;49.70;;;;;;5075333;28;20418;-68
2021/04/17 13:30:31;;;;;;;4.83;3.20;;;12.60;49.90;;;;;;5075965;28;20155;-68
2021/04/17 13:32:57;;;;;;;5.73;3.47;;;12.50;50.30;;;;;;5074976;28;20401;-68
2021/04/17 13:35:23;;;;;;;4.10;2.90;;;12.50;51.10;;;;;;5074535;28;20503;-68
2021/04/17 13:37:48;;;;;;;4.60;3.40;;;12.40;51.20;;;;;;5074755;28;20632;-68
2021/04/17 13:40:14;;;;;;;6.67;4.13;;;12.30;51.70;;;;;;5074500;28;20402;-68
2021/04/17 13:42:40;;;;;;;10.70;6.10;;;12.40;51.80;;;;;;5074227;28;20196;-68
2021/04/17 13:45:06;;;;;;;6.63;5.00;;;12.50;51.90;;;;;;5075454;28;20175;-68
2021/04/17 13:47:32;;;;;;;4.60;3.60;;;12.50;51.00;;;;;;5074855;28;20156;-68
2021/04/17 13:49:58;;;;;;;5.97;4.37;;;12.50;50.40;;;;;;5074317;28;20440;-68
2021/04/17 13:52:24;;;;;;;5.40;4.40;;;12.60;50.50;;;;;;5074296;28;20433;-68
2021/04/17 13:54:50;;;;;;;5.93;3.50;;;12.60;49.60;;;;;;5074313;28;20398;-68
2021/04/17 13:57:16;;;;;;;5.50;3.10;;;12.70;49.80;;;;;;5074261;28;20398;-68
2021/04/17 13:59:41;;;;;;;3.80;2.90;;;12.70;49.60;;;;;;5075326;28;20435;-68